Time;durP1;ratioP1;P1;durP2;ratioP2;P2;SDS_P1;SDS_P2;PMS_P1;PMS_P2;Temp;Humidity;BMP_temperature;BMP_pressure;BME280_temperature;BME280_humidity;BME280_pressure;Samples;Min_cycle;Max_cycle;Signal;HPM_P1;HPM_P2
2023/06/03 00:01:57;;;;;;;4.40;3.30;;;;;;;10.68;66.57;97018.27;109342;1269;24192;-85
2023/06/03 00:04:29;;;;;;;5.80;3.00;;;;;;;10.76;66.53;97019.36;109533;1263;23801;-85
2023/06/03 00:07:00;;;;;;;4.80;3.20;;;;;;;10.76;66.41;97017.82;109286;1263;49914;-84
2023/06/03 00:09:32;;;;;;;6.00;3.50;;;;;;;10.67;66.29;97020.86;109610;1269;23593;-84
2023/06/03 00:12:03;;;;;;;7.20;4.20;;;;;;;10.65;66.59;97024.20;109575;1269;24407;-85
2023/06/03 00:14:34;;;;;;;4.20;3.10;;;;;;;10.65;66.47;97020.54;109649;1269;22521;-85
2023/06/03 00:17:06;;;;;;;5.40;3.00;;;;;;;10.65;66.56;97019.42;109585;1266;47200;-85
2023/06/03 00:19:37;;;;;;;3.20;2.80;;;;;;;10.66;66.53;97020.16;109570;1269;22500;-84
2023/06/03 00:22:09;;;;;;;3.80;2.90;;;;;;;10.64;66.20;97027.54;109606;1263;23395;-85
2023/06/03 00:24:40;;;;;;;5.40;3.60;;;;;;;10.62;66.07;97027.65;109620;1262;22523;-85
2023/06/03 00:27:12;;;;;;;4.60;3.30;;;;;;;10.62;65.94;97032.95;109316;1268;33412;-85
2023/06/03 00:29:43;;;;;;;5.40;3.00;;;;;;;10.35;65.52;97033.52;109571;1269;22528;-84
2023/06/03 00:32:15;;;;;;;4.20;2.70;;;;;;;10.03;65.77;97033.36;109573;1267;24236;-85
2023/06/03 00:34:48;;;;;;;4.30;2.90;;;;;;;9.72;66.06;97036.29;109577;1269;23861;-84
2023/06/03 00:37:19;;;;;;;4.00;3.00;;;;;;;9.51;66.62;97033.23;109464;1269;31354;-85
2023/06/03 00:39:51;;;;;;;5.20;3.00;;;;;;;9.40;67.19;97034.30;109591;1263;22542;-84
2023/06/03 00:42:22;;;;;;;3.80;2.80;;;;;;;9.29;67.39;97036.91;109580;1269;24206;-85
2023/06/03 00:44:53;;;;;;;3.70;2.90;;;;;;;9.20;67.60;97035.77;109648;1262;22521;-85
2023/06/03 00:47:25;;;;;;;5.10;3.50;;;;;;;9.24;68.05;97036.72;109594;1247;43683;-84
2023/06/03 00:49:57;;;;;;;4.80;2.70;;;;;;;9.39;68.22;97037.20;109592;1263;22513;-85
2023/06/03 00:52:29;;;;;;;4.30;2.50;;;;;;;9.56;68.02;97038.42;109607;1256;22508;-84
2023/06/03 00:55:00;;;;;;;2.60;2.30;;;;;;;9.68;67.63;97040.67;109657;1262;22563;-85
2023/06/03 00:57:31;;;;;;;3.20;2.40;;;;;;;9.66;66.81;97044.90;109600;1260;22534;-84
2023/06/03 01:00:06;;;;;;;3.60;2.60;;;;;;;9.67;66.94;97045.86;109599;1266;23054;-85
2023/06/03 01:02:43;;;;;;;3.20;2.50;;;;;;;9.73;67.03;97042.77;109555;1263;22991;-85
2023/06/03 01:05:15;;;;;;;5.30;3.10;;;;;;;9.68;66.97;97041.73;109503;1263;39324;-85
2023/06/03 01:08:01;;;;;;;4.30;3.20;;;;;;;9.68;67.42;97042.41;109644;1263;25265;-84
2023/06/03 01:10:44;;;;;;;5.90;3.10;;;;;;;9.76;67.87;97044.35;109544;1267;24128;-84
2023/06/03 01:13:22;;;;;;;5.20;3.00;;;;;;;9.82;67.64;97040.16;109617;1263;22720;-85
2023/06/03 01:15:56;;;;;;;5.70;3.40;;;;;;;9.85;67.46;97043.42;109568;1263;38239;-85
2023/06/03 01:18:28;;;;;;;3.60;2.80;;;;;;;9.90;67.70;97040.98;109596;1262;23849;-85
2023/06/03 01:21:02;;;;;;;6.00;3.30;;;;;;;9.94;67.02;97046.23;109581;1269;22543;-85
2023/06/03 01:23:34;;;;;;;4.10;2.70;;;;;;;9.94;66.90;97041.46;109602;1267;24328;-85
2023/06/03 01:26:06;;;;;;;4.50;2.70;;;;;;;9.90;66.47;97042.41;109594;1263;65132;-84
2023/06/03 01:28:37;;;;;;;4.40;3.00;;;;;;;9.77;66.05;97042.29;109637;1269;22510;-84
2023/06/03 01:31:10;;;;;;;5.30;3.10;;;;;;;9.69;66.14;97043.96;109586;1267;22520;-85
2023/06/03 01:33:41;;;;;;;5.00;2.80;;;;;;;9.67;65.93;97044.05;109608;1262;25306;-84
2023/06/03 01:36:13;;;;;;;4.70;2.90;;;;;;;9.61;65.70;97043.14;109547;1262;34486;-84
2023/06/03 01:38:45;;;;;;;4.20;3.00;;;;;;;9.29;65.54;97043.62;109596;1263;22638;-84
2023/06/03 01:41:16;;;;;;;4.60;2.70;;;;;;;8.99;66.09;97039.84;109595;1269;25227;-84
2023/06/03 01:43:49;;;;;;;3.80;2.90;;;;;;;8.98;66.40;97041.89;109565;1269;22541;-84
2023/06/03 01:46:20;;;;;;;5.20;2.90;;;;;;;9.08;66.04;97040.79;109561;1262;41579;-84
2023/06/03 01:48:52;;;;;;;3.50;2.60;;;;;;;9.09;65.37;97041.59;109570;1269;22501;-84
2023/06/03 01:51:27;;;;;;;4.50;2.80;;;;;;;9.00;65.57;97046.60;109616;1263;22530;-84
2023/06/03 01:53:58;;;;;;;4.80;2.80;;;;;;;9.04;65.55;97045.73;109560;1269;22508;-84
2023/06/03 01:56:30;;;;;;;5.70;2.80;;;;;;;8.99;65.49;97044.02;109503;1263;53712;-84
2023/06/03 01:59:01;;;;;;;5.10;2.90;;;;;;;8.85;65.45;97043.58;109615;1269;22531;-85
2023/06/03 02:01:33;;;;;;;5.00;3.20;;;;;;;8.82;65.97;97044.35;109597;1269;24205;-84
2023/06/03 02:04:04;;;;;;;5.30;3.00;;;;;;;8.88;66.41;97043.16;109577;1266;22537;-84
2023/06/03 02:06:36;;;;;;;4.50;2.50;;;;;;;8.99;66.25;97044.86;109564;1262;51102;-85
2023/06/03 02:09:10;;;;;;;4.30;3.30;;;;;;;9.00;65.89;97049.88;109617;1262;23520;-84
2023/06/03 02:11:44;;;;;;;4.70;3.20;;;;;;;9.02;66.00;97051.97;109606;1269;26530;-84
2023/06/03 02:14:15;;;;;;;3.50;2.70;;;;;;;9.04;66.13;97054.48;109637;1261;22529;-84
2023/06/03 02:16:48;;;;;;;4.10;2.50;;;;;;;9.09;66.01;97056.13;109571;1269;33793;-84
2023/06/03 02:19:21;;;;;;;4.40;2.90;;;;;;;8.96;65.44;97054.25;109578;1246;22504;-84
2023/06/03 02:21:52;;;;;;;4.40;2.50;;;;;;;8.92;65.48;97057.20;109596;1269;23995;-84
2023/06/03 02:24:24;;;;;;;5.30;3.20;;;;;;;8.91;65.51;97062.17;109626;1266;24287;-84
2023/06/03 02:27:00;;;;;;;3.70;2.50;;;;;;;8.92;65.50;97065.93;109520;1269;46851;-84
2023/06/03 02:29:33;;;;;;;4.90;3.10;;;;;;;8.65;65.45;97069.63;109561;1260;25438;-84
2023/06/03 02:32:04;;;;;;;4.60;2.80;;;;;;;8.38;65.88;97067.63;109602;1261;23134;-84
2023/06/03 02:34:35;;;;;;;4.10;3.20;;;;;;;8.33;66.30;97073.14;109619;1263;23752;-84
2023/06/03 02:37:07;;;;;;;4.80;2.70;;;;;;;8.28;66.47;97071.36;109550;1263;39032;-82
2023/06/03 02:40:16;;;;;;;4.80;3.20;;;;;;;8.21;66.48;97072.42;109571;1269;22720;-85
2023/06/03 02:42:47;;;;;;;8.50;3.40;;;;;;;8.18;67.53;97075.48;109566;1269;22502;-84
2023/06/03 02:45:18;;;;;;;4.80;3.00;;;;;;;8.28;67.93;97072.76;109595;1265;45346;-84
2023/06/03 02:47:50;;;;;;;4.10;3.00;;;;;;;8.47;68.03;97074.89;109608;1269;22552;-85
2023/06/03 02:50:21;;;;;;;3.70;2.70;;;;;;;8.52;67.46;97079.78;109621;1262;22505;-85
2023/06/03 02:52:52;;;;;;;7.00;2.90;;;;;;;8.52;67.23;97081.69;109588;1246;23292;-85
2023/06/03 02:55:27;;;;;;;4.30;3.00;;;;;;;8.36;66.93;97082.86;109552;1263;65368;-85
2023/06/03 02:57:58;;;;;;;5.50;3.30;;;;;;;8.11;67.31;97081.79;109563;1263;26529;-84
2023/06/03 03:00:30;;;;;;;4.10;2.70;;;;;;;8.04;67.84;97082.26;109586;1269;22622;-85
2023/06/03 03:03:01;;;;;;;5.60;2.90;;;;;;;8.15;67.87;97081.77;109606;1269;22495;-84
2023/06/03 03:05:34;;;;;;;4.60;3.10;;;;;;;8.28;68.20;97076.81;109566;1269;59923;-85
2023/06/03 03:08:05;;;;;;;4.80;2.60;;;;;;;8.42;68.00;97085.36;109623;1263;22539;-85
2023/06/03 03:10:37;;;;;;;4.80;2.80;;;;;;;8.52;67.73;97089.41;109570;1269;22558;-85
2023/06/03 03:13:08;;;;;;;6.50;2.60;;;;;;;8.58;67.63;97087.27;109603;1269;22531;-84
2023/06/03 03:15:39;;;;;;;4.20;3.10;;;;;;;8.66;67.79;97091.83;109513;1266;33085;-85
2023/06/03 03:18:10;;;;;;;4.40;2.60;;;;;;;8.73;67.74;97097.22;109539;1266;22555;-84
2023/06/03 03:20:42;;;;;;;3.40;2.90;;;;;;;8.80;67.68;97096.73;109586;1262;25369;-84
2023/06/03 03:23:14;;;;;;;3.90;2.40;;;;;;;8.77;67.29;97098.73;109579;1262;24228;-85
2023/06/03 03:25:46;;;;;;;5.90;3.10;;;;;;;8.80;67.67;97101.60;109537;1263;50358;-85
2023/06/03 03:28:17;;;;;;;3.60;2.20;;;;;;;8.85;67.53;97105.48;109596;1268;23970;-85
2023/06/03 03:30:49;;;;;;;3.60;2.30;;;;;;;8.88;67.60;97107.11;109639;1269;22522;-85
2023/06/03 03:33:21;;;;;;;3.70;2.20;;;;;;;8.92;67.61;97112.58;109589;1251;25438;-85
2023/06/03 03:35:53;;;;;;;4.60;2.40;;;;;;;8.96;67.47;97112.65;109586;1269;32237;-84
2023/06/03 03:38:24;;;;;;;3.20;2.10;;;;;;;8.84;67.46;97117.07;109591;1263;25522;-85
2023/06/03 03:40:56;;;;;;;4.20;2.30;;;;;;;8.89;67.73;97123.29;109608;1259;22544;-85
2023/06/03 03:43:29;;;;;;;5.50;2.30;;;;;;;8.90;67.50;97123.30;109646;1269;22512;-85
2023/06/03 03:46:01;;;;;;;4.00;2.80;;;;;;;8.93;67.78;97125.11;109511;1269;66317;-85
2023/06/03 03:48:36;;;;;;;4.30;3.30;;;;;;;9.01;67.88;97128.82;109594;1269;23818;-85
2023/06/03 03:51:08;;;;;;;4.20;2.30;;;;;;;9.05;67.96;97132.65;109591;1269;22500;-85
2023/06/03 03:53:43;;;;;;;5.00;3.20;;;;;;;9.14;68.17;97131.91;109631;1262;22591;-85
2023/06/03 03:56:19;;;;;;;6.30;2.90;;;;;;;9.24;68.38;97134.08;109593;1266;54093;-85
2023/06/03 03:58:52;;;;;;;4.90;2.90;;;;;;;9.29;68.40;97138.08;109575;1269;22509;-85
2023/06/03 04:01:24;;;;;;;3.90;2.70;;;;;;;9.35;68.45;97141.98;109544;1269;22636;-85
2023/06/03 04:03:57;;;;;;;4.20;2.80;;;;;;;9.36;68.45;97143.19;109613;1267;22533;-85
2023/06/03 04:06:36;;;;;;;5.30;3.00;;;;;;;9.42;68.82;97143.17;109515;1269;59018;-85
2023/06/03 04:09:10;;;;;;;7.00;3.20;;;;;;;9.51;69.12;97143.05;109594;1269;22530;-84
2023/06/03 04:11:42;;;;;;;4.80;2.70;;;;;;;9.57;68.98;97142.60;109557;1269;25459;-85
2023/06/03 04:14:15;;;;;;;4.40;2.80;;;;;;;9.58;69.22;97142.41;109635;1262;24282;-85
2023/06/03 04:16:54;;;;;;;6.70;3.00;;;;;;;9.65;69.57;97146.34;109558;1269;42110;-85
2023/06/03 04:19:32;;;;;;;6.20;2.80;;;;;;;9.76;69.64;97146.14;109594;1246;22564;-85
2023/06/03 04:22:06;;;;;;;4.70;3.30;;;;;;;9.82;69.76;97145.23;109592;1267;25514;-85
2023/06/03 04:24:38;;;;;;;7.00;3.50;;;;;;;9.87;69.79;97140.45;109647;1269;22547;-85
2023/06/03 04:27:12;;;;;;;5.40;3.20;;;;;;;9.94;69.74;97143.90;109564;1266;50225;-85
2023/06/03 04:29:43;;;;;;;6.00;3.40;;;;;;;10.01;69.93;97145.95;109587;1269;22615;-85
2023/06/03 04:32:14;;;;;;;5.20;3.70;;;;;;;10.08;70.04;97147.17;109613;1263;22532;-85
2023/06/03 04:34:56;;;;;;;5.20;3.90;;;;;;;10.17;70.12;97148.27;109585;1269;22555;-85
2023/06/03 04:37:28;;;;;;;5.30;3.90;;;;;;;10.26;70.11;97153.40;109585;1262;24197;-85
2023/06/03 04:40:01;;;;;;;4.40;3.20;;;;;;;10.36;69.99;97151.70;109596;1263;22504;-85
2023/06/03 04:42:33;;;;;;;4.70;3.20;;;;;;;10.41;70.10;97154.91;109578;1263;22545;-85
2023/06/03 04:45:05;;;;;;;7.30;3.70;;;;;;;10.48;69.85;97153.59;109563;1269;33937;-85
2023/06/03 04:47:41;;;;;;;7.00;3.50;;;;;;;10.53;69.71;97159.58;109551;1269;22505;-85
2023/06/03 04:50:17;;;;;;;7.50;3.50;;;;;;;10.57;69.56;97159.05;109631;1269;23451;-85
2023/06/03 04:52:48;;;;;;;6.00;3.70;;;;;;;10.64;69.91;97161.61;109622;1263;22505;-85
2023/06/03 04:55:20;;;;;;;5.80;3.90;;;;;;;10.79;70.16;97159.91;109565;1263;50198;-85
2023/06/03 04:57:51;;;;;;;5.30;3.30;;;;;;;10.94;70.20;97161.17;109618;1269;22595;-85
2023/06/03 05:00:23;;;;;;;7.00;4.30;;;;;;;11.10;70.19;97163.65;109584;1269;23145;-85
2023/06/03 05:02:56;;;;;;;6.20;3.70;;;;;;;11.31;70.05;97166.33;109602;1263;22504;-85
2023/06/03 05:05:28;;;;;;;5.90;3.50;;;;;;;11.48;69.65;97164.42;109555;1266;55542;-85
2023/06/03 05:07:59;;;;;;;7.50;3.90;;;;;;;11.70;69.72;97166.27;109509;1266;22591;-85
2023/06/03 05:10:31;;;;;;;6.60;4.00;;;;;;;11.98;69.36;97164.54;109564;1267;23798;-85
2023/06/03 05:13:02;;;;;;;5.70;2.80;;;;;;;12.41;69.56;97164.35;109601;1263;22549;-85
2023/06/03 05:15:34;;;;;;;5.90;3.50;;;;;;;13.68;71.07;97159.85;109563;1269;31257;-85
2023/06/03 05:18:06;;;;;;;6.00;3.10;;;;;;;15.70;70.13;97164.66;109552;1268;22521;-85
2023/06/03 05:20:37;;;;;;;4.70;2.90;;;;;;;17.86;67.33;97158.86;109573;1269;22505;-85
2023/06/03 05:23:08;;;;;;;5.70;3.00;;;;;;;19.60;64.03;97162.90;109579;1269;22981;-85
2023/06/03 05:25:40;;;;;;;5.50;3.10;;;;;;;20.92;60.21;97163.60;109532;1267;37345;-85
2023/06/03 05:28:12;;;;;;;5.30;3.10;;;;;;;22.04;58.08;97162.55;109590;1268;22520;-86
2023/06/03 05:30:45;;;;;;;4.80;2.90;;;;;;;22.95;55.06;97158.27;109588;1269;23780;-85
2023/06/03 05:33:28;;;;;;;8.20;2.60;;;;;;;23.52;52.62;97162.90;109550;1263;22546;-86
2023/06/03 05:36:00;;;;;;;5.10;2.80;;;;;;;23.46;50.84;97166.14;109546;1269;46648;-86
2023/06/03 05:38:33;;;;;;;5.10;2.80;;;;;;;23.56;48.62;97166.39;109545;1266;24202;-86
2023/06/03 05:41:06;;;;;;;5.00;2.80;;;;;;;22.94;47.52;97166.09;109578;1262;23139;-86
2023/06/03 05:43:37;;;;;;;3.10;2.20;;;;;;;23.28;47.22;97165.77;109551;1269;23752;-86
2023/06/03 05:46:10;;;;;;;4.90;2.70;;;;;;;23.87;46.04;97168.48;109602;1269;52350;-86
2023/06/03 05:48:44;;;;;;;6.00;2.80;;;;;;;24.20;45.18;97165.00;109598;1256;23927;-86
2023/06/03 05:51:17;;;;;;;5.90;2.40;;;;;;;24.27;43.08;97161.53;109590;1263;22505;-86
2023/06/03 05:53:51;;;;;;;4.10;2.40;;;;;;;23.85;41.86;97163.18;109575;1266;23836;-86
2023/06/03 05:56:26;;;;;;;5.30;2.20;;;;;;;23.78;41.70;97166.34;109523;1268;48407;-85
2023/06/03 05:58:58;;;;;;;3.90;1.90;;;;;;;24.17;41.16;97166.23;109556;1268;22521;-86
2023/06/03 06:01:30;;;;;;;5.20;2.60;;;;;;;23.86;39.46;97168.31;109540;1267;22562;-85
2023/06/03 06:04:02;;;;;;;3.10;1.90;;;;;;;23.73;39.34;97169.09;109559;1263;22501;-85
2023/06/03 06:06:35;;;;;;;5.40;2.30;;;;;;;23.55;38.56;97169.77;109515;1269;46240;-86
2023/06/03 06:09:06;;;;;;;6.80;2.40;;;;;;;23.91;38.78;97170.36;109568;1269;22643;-85
2023/06/03 06:11:38;;;;;;;4.40;1.90;;;;;;;23.97;37.46;97170.58;109532;1269;24234;-85
2023/06/03 06:14:10;;;;;;;4.00;2.50;;;;;;;24.33;38.13;97171.63;109622;1263;23608;-86
2023/06/03 06:16:41;;;;;;;2.60;2.00;;;;;;;23.76;36.03;97172.88;109555;1266;39898;-85
2023/06/03 06:19:13;;;;;;;5.70;2.70;;;;;;;22.05;36.71;97181.64;109586;1262;22505;-85
2023/06/03 06:21:48;;;;;;;7.30;2.90;;;;;;;21.11;38.03;97177.67;109612;1269;24228;-85
2023/06/03 06:24:24;;;;;;;5.20;2.80;;;;;;;21.12;39.05;97179.46;109412;1263;23317;-85
2023/06/03 06:26:57;;;;;;;4.80;2.70;;;;;;;21.35;38.73;97184.06;109555;1266;35891;-85
2023/06/03 06:29:30;;;;;;;4.90;2.40;;;;;;;21.36;38.58;97190.02;109623;1266;22527;-85
2023/06/03 06:32:03;;;;;;;5.70;2.50;;;;;;;21.50;39.20;97189.44;109635;1269;26442;-85
2023/06/03 06:34:37;;;;;;;5.00;2.70;;;;;;;21.95;38.57;97192.27;109740;1256;22590;-85
2023/06/03 06:37:09;;;;;;;4.20;2.40;;;;;;;21.70;38.10;97194.08;109567;1269;53290;-84
2023/06/03 06:39:57;;;;;;;4.30;2.30;;;;;;;21.43;37.96;97189.96;109628;1259;22508;-85
2023/06/03 06:42:34;;;;;;;5.90;2.10;;;;;;;21.18;38.31;97187.30;109752;1268;22504;-84
2023/06/03 06:45:16;;;;;;;5.80;2.40;;;;;;;20.65;38.14;97188.09;109613;1266;51785;-84
2023/06/03 06:47:47;;;;;;;6.50;2.40;;;;;;;20.36;38.77;97184.05;109588;1266;22556;-84
2023/06/03 06:50:36;;;;;;;7.80;2.50;;;;;;;20.76;40.29;97189.80;109672;1259;22559;-84
2023/06/03 06:53:15;;;;;;;6.00;3.00;;;;;;;21.77;39.80;97189.22;109674;1262;24192;-84
2023/06/03 06:55:48;;;;;;;;;;;;;;;22.38;39.57;97184.92;109653;1264;55909;-85
2023/06/03 06:58:23;;;;;;;4.90;2.80;;;;;;;22.76;39.24;97177.14;109544;1261;22523;-84
2023/06/03 07:00:54;;;;;;;5.70;2.80;;;;;;;23.04;38.92;97186.83;109584;1266;22822;-84
2023/06/03 07:03:31;;;;;;;7.70;2.10;;;;;;;23.18;36.97;97185.44;109635;1266;22504;-84
2023/06/03 07:06:02;;;;;;;5.40;1.60;;;;;;;22.21;34.30;97187.75;109572;1263;48858;-84
2023/06/03 07:08:38;;;;;;;3.60;1.90;;;;;;;20.86;34.11;97186.26;109464;1260;22556;-84
2023/06/03 07:11:10;;;;;;;4.50;2.30;;;;;;;20.00;34.78;97193.30;109526;1269;22487;-83
2023/06/03 07:13:42;;;;;;;2.50;1.60;;;;;;;19.45;35.55;97196.44;109503;1267;22505;-84
2023/06/03 07:16:13;;;;;;;69.30;10.80;;;;;;;19.13;36.53;97194.31;109415;1268;42629;-84
2023/06/03 07:18:44;;;;;;;3.90;1.90;;;;;;;18.86;37.07;97196.05;109504;1263;22501;-83
2023/06/03 07:21:18;;;;;;;4.40;2.20;;;;;;;19.14;37.98;97193.58;109550;1263;22711;-83
2023/06/03 07:23:50;;;;;;;10.90;2.10;;;;;;;19.53;37.74;97204.30;109506;1270;22653;-83
2023/06/03 07:26:27;;;;;;;5.70;2.20;;;;;;;19.16;37.64;97201.42;109509;1263;47251;-84
2023/06/03 07:29:01;;;;;;;5.90;2.30;;;;;;;18.69;38.20;97204.48;109554;1267;22556;-84
2023/06/03 07:31:37;;;;;;;5.00;2.20;;;;;;;19.03;38.97;97208.75;109438;1263;22512;-84
2023/06/03 07:34:09;;;;;;;3.30;1.70;;;;;;;19.39;38.92;97210.66;109474;1266;24274;-84
2023/06/03 07:36:40;;;;;;;3.30;2.00;;;;;;;19.15;38.55;97211.20;109461;1266;63729;-84
2023/06/03 07:39:20;;;;;;;3.40;2.10;;;;;;;18.91;39.01;97214.69;109451;1266;22592;-84
2023/06/03 07:41:54;;;;;;;3.70;2.30;;;;;;;18.70;39.18;97216.89;109492;1259;22532;-84
2023/06/03 07:44:41;;;;;;;5.60;2.30;;;;;;;18.48;39.80;97212.29;109540;1267;24182;-83
2023/06/03 07:47:14;;;;;;;5.20;1.80;;;;;;;18.30;39.41;97214.11;109469;1267;101433;-84
2023/06/03 07:49:53;;;;;;;4.60;1.60;;;;;;;17.96;39.48;97214.59;109406;1263;22473;-84
2023/06/03 07:52:25;;;;;;;3.80;1.90;;;;;;;17.60;39.45;97214.23;109484;1247;22523;-83
2023/06/03 07:54:57;;;;;;;4.60;1.80;;;;;;;17.74;39.53;97223.11;109503;1269;24183;-83
2023/06/03 07:57:29;;;;;;;5.20;2.20;;;;;;;17.43;39.16;97224.38;109442;1269;24393;-83
2023/06/03 08:00:09;;;;;;;2.20;1.50;;;;;;;16.86;39.37;97224.09;109507;1270;22686;-84
2023/06/03 08:02:40;;;;;;;3.90;1.70;;;;;;;16.50;39.62;97227.21;109546;1270;24758;-84
2023/06/03 08:05:12;;;;;;;4.80;2.20;;;;;;;16.29;39.76;97224.95;109465;1265;49898;-84
2023/06/03 08:07:47;;;;;;;4.00;1.90;;;;;;;16.08;40.09;97224.31;109533;1269;22536;-83
2023/06/03 08:10:26;;;;;;;4.50;2.00;;;;;;;15.80;40.42;97229.87;109610;1259;25349;-83
2023/06/03 08:12:59;;;;;;;4.60;1.50;;;;;;;15.70;40.55;97230.85;109605;1266;23208;-83
2023/06/03 08:15:40;;;;;;;6.80;1.90;;;;;;;15.74;40.29;97232.92;109597;1269;67685;-83
2023/06/03 08:18:30;;;;;;;2.50;1.80;;;;;;;15.97;41.30;97228.10;109394;1263;242578;-83
2023/06/03 08:21:05;;;;;;;4.00;1.80;;;;;;;16.20;40.63;97228.71;109593;1263;22571;-83
2023/06/03 08:23:53;;;;;;;3.40;1.80;;;;;;;15.87;41.10;97229.90;109581;1269;22497;-83
2023/06/03 08:26:26;;;;;;;2.40;1.50;;;;;;;15.74;40.66;97233.40;109523;1269;43496;-83
2023/06/03 08:28:58;;;;;;;4.60;1.90;;;;;;;15.75;41.04;97230.50;109560;1270;22629;-83
2023/06/03 08:31:30;;;;;;;4.90;1.80;;;;;;;16.20;41.58;97234.69;109208;1255;25220;-83
2023/06/03 08:34:03;;;;;;;3.00;1.50;;;;;;;16.79;40.97;97233.05;109479;1268;22508;-84
2023/06/03 08:36:36;;;;;;;3.00;1.80;;;;;;;16.63;39.52;97240.70;109418;1263;47104;-83
2023/06/03 08:39:09;;;;;;;3.70;1.40;;;;;;;16.06;39.75;97241.79;109515;1269;22558;-83
2023/06/03 08:41:43;;;;;;;3.50;1.40;;;;;;;15.92;40.06;97240.79;109467;1263;22531;-84
2023/06/03 08:44:21;;;;;;;3.00;1.60;;;;;;;16.20;41.08;97239.89;109537;1270;24155;-84
2023/06/03 08:47:01;;;;;;;3.50;1.90;;;;;;;16.55;40.88;97237.45;109479;1268;36957;-84
2023/06/03 08:49:39;;;;;;;;;;;;;;;16.84;40.69;97231.74;109561;1268;25371;-84
2023/06/03 08:52:11;;;;;;;3.70;1.80;;;;;;;17.08;40.62;97234.03;109484;1270;22541;-84
2023/06/03 08:54:44;;;;;;;3.70;1.90;;;;;;;17.03;39.88;97241.59;109517;1270;22518;-84
2023/06/03 08:57:19;;;;;;;3.80;1.60;;;;;;;16.79;40.00;97243.42;109548;1263;45580;-84
2023/06/03 08:59:54;;;;;;;3.70;1.60;;;;;;;16.78;40.48;97238.69;109612;1269;25307;-84
2023/06/03 09:02:27;;;;;;;3.90;2.10;;;;;;;16.93;40.49;97238.09;109644;1263;22508;-84
2023/06/03 09:05:01;;;;;;;2.90;1.80;;;;;;;16.98;40.47;97239.71;109591;1269;22536;-84
2023/06/03 09:07:33;;;;;;;2.60;1.40;;;;;;;16.92;40.41;97239.23;109565;1269;22501;-84
2023/06/03 09:10:06;;;;;;;3.60;1.70;;;;;;;16.92;39.92;97239.55;109582;1263;22604;-84
2023/06/03 09:12:38;;;;;;;4.30;2.20;;;;;;;16.92;40.83;97233.21;109613;1263;22519;-83
2023/06/03 09:15:14;;;;;;;2.90;1.70;;;;;;;17.13;41.30;97229.78;109541;1248;47735;-84
2023/06/03 09:17:46;;;;;;;5.50;1.80;;;;;;;17.32;41.61;97229.37;109570;1269;24174;-84
2023/06/03 09:20:19;;;;;;;4.30;2.00;;;;;;;17.46;41.12;97232.07;109559;1247;22501;-84
2023/06/03 09:22:55;;;;;;;3.40;1.80;;;;;;;17.55;40.97;97232.33;109615;1266;23045;-83
2023/06/03 09:25:26;;;;;;;4.30;1.70;;;;;;;17.65;41.02;97229.77;109478;1269;36308;-81
2023/06/03 09:27:58;;;;;;;4.10;2.10;;;;;;;17.44;39.72;97229.25;109421;1270;24189;-84
2023/06/03 09:30:33;;;;;;;2.20;1.70;;;;;;;17.09;39.74;97230.63;109376;1263;22525;-83
2023/06/03 09:33:04;;;;;;;3.40;1.20;;;;;;;17.07;40.28;97227.85;109517;1266;23289;-83
2023/06/03 09:35:36;;;;;;;3.20;1.60;;;;;;;16.93;39.83;97226.83;109407;1263;110956;-83
2023/06/03 09:38:17;;;;;;;2.70;1.50;;;;;;;16.94;40.44;97220.22;109478;1269;22504;-83
2023/06/03 09:40:49;;;;;;;4.70;1.80;;;;;;;16.93;40.12;97219.23;109484;1267;22526;-84
2023/06/03 09:43:20;;;;;;;5.00;2.30;;;;;;;17.08;41.27;97216.89;109468;1263;22511;-84
2023/06/03 09:45:53;;;;;;;5.20;2.10;;;;;;;17.27;40.97;97213.24;109423;1270;43278;-84
2023/06/03 09:48:30;;;;;;;4.60;2.00;;;;;;;17.34;41.12;97210.69;109408;1266;26894;-83
2023/06/03 09:51:04;;;;;;;3.80;2.20;;;;;;;17.36;41.27;97211.87;109468;1263;22523;-83
2023/06/03 09:53:37;;;;;;;4.20;2.20;;;;;;;17.24;40.70;97207.98;109457;1263;22587;-83
2023/06/03 09:56:26;;;;;;;4.90;2.00;;;;;;;17.14;41.10;97214.20;109453;1270;43106;-84
2023/06/03 09:59:18;;;;;;;4.50;2.00;;;;;;;17.16;41.25;97210.63;109462;1270;22616;-84
2023/06/03 10:01:51;;;;;;;5.30;2.00;;;;;;;17.30;42.01;97208.05;109490;1248;22552;-84
2023/06/03 10:04:24;;;;;;;3.50;1.70;;;;;;;17.42;41.61;97200.70;109479;1263;22513;-83
2023/06/03 10:07:11;;;;;;;4.50;2.10;;;;;;;17.53;41.54;97204.98;109204;1270;96491;-83
2023/06/03 10:09:51;;;;;;;3.10;2.00;;;;;;;17.38;39.86;97214.58;109425;1269;22532;-84
2023/06/03 10:12:31;;;;;;;5.50;2.20;;;;;;;16.94;39.94;97213.31;109472;1269;24159;-84
2023/06/03 10:15:04;;;;;;;4.40;2.00;;;;;;;16.84;40.71;97215.52;109390;1270;22520;-83
2023/06/03 10:17:36;;;;;;;2.30;1.50;;;;;;;16.87;39.99;97215.44;109564;1266;22516;-83
2023/06/03 10:20:10;;;;;;;3.00;1.70;;;;;;;16.84;40.50;97205.45;109564;1263;22547;-83
2023/06/03 10:22:44;;;;;;;3.10;1.70;;;;;;;16.78;39.82;97215.49;109649;1269;22490;-83
2023/06/03 10:25:16;;;;;;;3.80;1.60;;;;;;;16.56;39.69;97213.06;109534;1263;22966;-82
2023/06/03 10:27:49;;;;;;;4.30;2.10;;;;;;;16.48;40.38;97207.27;109676;1269;22581;-83
2023/06/03 10:30:23;;;;;;;3.90;2.10;;;;;;;16.59;41.67;97206.80;109604;1263;22597;-83
2023/06/03 10:32:57;;;;;;;8.50;2.40;;;;;;;16.75;41.01;97213.05;109578;1269;22551;-83
2023/06/03 10:35:31;;;;;;;4.70;2.20;;;;;;;16.91;41.66;97208.19;109607;1269;82804;-84
2023/06/03 10:38:05;;;;;;;6.60;2.30;;;;;;;17.09;42.01;97204.04;109481;1268;22504;-83
2023/06/03 10:40:37;;;;;;;6.80;2.20;;;;;;;17.30;41.83;97204.29;109557;1269;23860;-83
2023/06/03 10:43:12;;;;;;;3.60;2.30;;;;;;;17.31;40.64;97199.85;109587;1269;24218;-83
2023/06/03 10:45:44;;;;;;;5.20;2.20;;;;;;;17.18;40.64;97196.38;109541;1266;47670;-83
2023/06/03 10:48:18;;;;;;;5.50;2.60;;;;;;;17.27;41.76;97194.34;109580;1269;22513;-83
2023/06/03 10:51:02;;;;;;;3.10;2.00;;;;;;;17.33;41.37;97196.66;109540;1266;22646;-83
2023/06/03 10:53:46;;;;;;;3.30;2.40;;;;;;;17.34;41.13;97190.73;109561;1269;24207;-83
2023/06/03 10:56:28;;;;;;;4.90;2.30;;;;;;;17.48;42.22;97190.79;109488;1269;30732;-83
2023/06/03 10:59:04;;;;;;;4.90;2.40;;;;;;;17.61;41.92;97186.91;109573;1260;23019;-83
2023/06/03 11:02:00;;;;;;;4.80;2.10;;;;;;;17.55;40.92;97186.45;109546;1269;24214;-83
2023/06/03 11:04:35;;;;;;;5.80;2.40;;;;;;;17.32;40.80;97188.54;109505;1269;24019;-83
2023/06/03 11:07:08;;;;;;;3.90;2.00;;;;;;;17.31;40.95;97184.91;109504;1269;48978;-83
2023/06/03 11:09:41;;;;;;;5.90;2.50;;;;;;;17.12;39.79;97190.79;109576;1269;22509;-83
2023/06/03 11:12:14;;;;;;;4.20;2.20;;;;;;;16.87;40.74;97183.89;109498;1269;22628;-83
2023/06/03 11:14:58;;;;;;;4.70;2.10;;;;;;;17.03;41.56;97181.38;109523;1269;22530;-84
2023/06/03 11:17:29;;;;;;;5.10;2.10;;;;;;;17.20;41.30;97180.96;109551;1269;37847;-83
2023/06/03 11:20:01;;;;;;;2.90;1.70;;;;;;;17.32;41.37;97181.46;109551;1266;22498;-83
2023/06/03 11:22:46;;;;;;;2.70;1.90;;;;;;;17.45;41.57;97181.47;109468;1269;22534;-83
2023/06/03 11:25:33;;;;;;;4.10;2.30;;;;;;;17.62;41.75;97185.28;109513;1269;61170;-82
2023/06/03 11:28:36;;;;;;;4.40;1.80;;;;;;;17.69;41.55;97176.68;109555;1263;22579;-83
2023/06/03 11:31:08;;;;;;;3.80;2.20;;;;;;;17.76;41.22;97169.38;109517;1266;22520;-83
2023/06/03 11:33:40;;;;;;;4.10;2.20;;;;;;;17.72;41.13;97174.84;109529;1269;25265;-83
2023/06/03 11:36:47;;;;;;;6.80;2.30;;;;;;;17.75;41.58;97177.53;109457;1268;36040;-83
2023/06/03 11:39:19;;;;;;;4.10;2.00;;;;;;;17.89;41.60;97181.91;109584;1269;22508;-83
2023/06/03 11:42:19;;;;;;;4.90;2.10;;;;;;;17.92;41.27;97179.02;109590;1264;22515;-83
2023/06/03 11:44:50;;;;;;;3.50;2.20;;;;;;;17.92;41.07;97186.81;109586;1269;23753;-83
2023/06/03 11:47:21;;;;;;;3.90;2.30;;;;;;;17.91;40.92;97185.61;109527;1266;25396;-83
2023/06/03 11:49:52;;;;;;;5.10;2.10;;;;;;;17.79;40.36;97177.33;109574;1266;22520;-84
2023/06/03 11:52:24;;;;;;;3.40;2.10;;;;;;;17.61;41.01;97175.22;109547;1269;22516;-83
2023/06/03 11:54:55;;;;;;;4.20;2.40;;;;;;;17.69;41.67;97177.15;109554;1262;22521;-83
2023/06/03 11:57:31;;;;;;;5.10;1.80;;;;;;;17.85;41.75;97175.89;109506;1269;22560;-83
2023/06/03 12:00:08;;;;;;;4.30;2.10;;;;;;;17.68;40.04;97176.06;109598;1266;22521;-83
2023/06/03 12:02:41;;;;;;;4.10;2.10;;;;;;;17.46;40.43;97173.48;109597;1269;25011;-83